Aviation Digital Data Service (ADDS)

Output produced by METARs form (1827 UTC 22 November 2017)
found at http://www.aviationweather.gov/adds/metars/
 
TAF AMD LOXA 221520Z 2215/2224 VRB03KT 3000 BCFG BKN250 
     TEMPO 2215/2224 0700 FG BKN001
       
LOWG 221820Z AUTO VRB01KT 9999 NCD 03/02 Q1015 NOSIG
TAF LOWG 221715Z 2218/2318 VRB03KT CAVOK TX12/2312Z TNM03/2306Z 
     PROB30 
     TEMPO 2303/2308 0400 FZBCFG NSC
       
LOWI 221820Z VRB02KT CAVOK 02/01 Q1016 NOSIG
TAF LOWI 221715Z 2218/2318 08004KT CAVOK TX08/2313Z TNM02/2306Z 
     TEMPO 2220/2307 5000 BR SCT005 
     BECMG 2302/2304 27007KT 
     BECMG 2310/2312 10006KT 
     TEMPO 2312/2318 12010G25KT
       
LOWK 221820Z 30004KT CAVOK 03/02 Q1017 NOSIG
TAF LOWK 221715Z 2218/2318 VRB02KT 9999 FEW045 SCT300 TX08/2312Z TNM01/2306Z 
     PROB30 
     TEMPO 2304/2307 3000 BR BKN007
       
LOWL 221820Z VRB01KT CAVOK 04/03 Q1014 NOSIG
TAF LOWL 221715Z 2218/2318 VRB02KT CAVOK TX06/2314Z TN00/2306Z 
     BECMG 2220/2222 3000 BR NSC 
     BECMG 2222/2301 0400 FG VV002 
     TEMPO 2301/2308 0100 VV001 
     BECMG 2308/2310 1500 BR OVC003 
     BECMG 2310/2312 5000 BKN006 
     PROB30 2313/2318 09005KT 9999 SCT010
       
LOWS 221820Z 15014KT CAVOK 06/02 Q1014 NOSIG
TAF LOWS 221715Z 2218/2318 15009KT CAVOK TX14/2312Z TN02/2305Z 
     BECMG 2309/2311 31005KT 
     BECMG 2315/2317 15007KT
       
LOWW 221820Z VRB02KT CAVOK 08/03 Q1014 NOSIG
TAF LOWW 221715Z 2218/2324 28006KT CAVOK TX11/2218Z TN00/2303Z 
     BECMG 2223/2301 14004KT 2000 BCFG FEW001 
     BECMG 2301/2303 0400 FG VV001 
     BECMG 2308/2310 1500 BR BKN004 
     BECMG 2310/2312 7000 NSW BKN012 
     BECMG 2312/2314 29008KT SCT015 
     BECMG 2316/2318 VRB02KT 2000 BR 
     BECMG 2319/2322 0400 FG VV001
       
TAF LOXT 221715Z 2218/2303 24007KT 9999 FEW120 BKN300 
     BECMG 2218/2219 VRB03KT
       
LOAV 221500Z 17008KT 40KM SCT100AC BKN300CI 12/04
TAF LOAV 221125Z 2212/2221 VRB02KT 9999 FEW180 BKN300 
     TEMPO 2212/2215 27012G22KT 
     BECMG 2219/2221 4000 BR
       
LOAN 221500Z 03003KT 45KM BKN300CI
TAF LOAN 221125Z 2212/2221 VRB02KT 9999 FEW180 BKN300 
     TEMPO 2212/2215 30010KT 
     BECMG 2219/2221 4000 BR
       
TAF LOXN 221715Z 2218/2303 VRB03KT 9999 FEW120 BKN300
       
LOXZ 221750Z VRB01KT 15KM FEW250CI SCT300CI 02/01 Q1016
TAF LOXZ 221115Z 2212/2221 VRB03KT 9999 BKN300